Time;durP1;ratioP1;P1;durP2;ratioP2;P2;SDS_P1;SDS_P2;PMS_P1;PMS_P2;Temp;Humidity;BMP_temperature;BMP_pressure;BME280_temperature;BME280_humidity;BME280_pressure;Samples;Min_cycle;Max_cycle;Signal;HPM_P1;HPM_P2
2021/03/12 00:00:33;;;;;;;2.27;0.60;;;;;;;7.13;84.96;97988.44;4892008;28;104298;-84
2021/03/12 00:03:11;;;;;;;2.80;0.70;;;;;;;7.14;84.56;97984.88;4898469;28;103097;-83
2021/03/12 00:05:43;;;;;;;1.97;0.70;;;;;;;7.13;83.21;97988.44;4890870;28;103337;-82
2021/03/12 00:08:12;;;;;;;2.80;0.90;;;;;;;7.24;82.22;98000.88;4867336;28;103572;-84
2021/03/12 00:10:39;;;;;;;1.93;1.00;;;;;;;7.27;83.21;97990.97;4888372;28;108553;-81
2021/03/12 00:13:07;;;;;;;1.30;0.70;;;;;;;7.28;83.15;97997.91;4896191;28;103200;-83
2021/03/12 00:15:34;;;;;;;1.80;0.77;;;;;;;7.27;82.91;97996.22;4886284;28;104482;-83
2021/03/12 00:18:02;;;;;;;3.93;0.80;;;;;;;7.26;82.34;97994.56;4883952;28;104449;-83
2021/03/12 00:20:32;;;;;;;3.60;1.10;;;;;;;7.32;82.48;97999.38;4900895;28;104343;-82
2021/03/12 00:22:59;;;;;;;4.27;0.90;;;;;;;7.31;81.77;97997.69;4890204;28;102800;-82
2021/03/12 00:25:32;;;;;;;2.53;0.80;;;;;;;7.37;82.70;98001.69;4914112;28;103421;-83
2021/03/12 00:27:59;;;;;;;2.87;0.90;;;;;;;7.38;81.12;98011.25;4887449;28;104565;-81
2021/03/12 00:30:27;;;;;;;4.53;0.80;;;;;;;7.44;78.77;98011.63;4884125;28;103312;-83
2021/03/12 00:32:54;;;;;;;2.23;0.67;;;;;;;7.48;78.84;98018.38;4875701;28;104660;-84
2021/03/12 00:35:21;;;;;;;3.30;0.90;;;;;;;7.54;78.26;98020.56;4891663;28;103351;-83
2021/03/12 00:37:48;;;;;;;2.87;0.97;;;;;;;7.58;78.50;98032.53;4896810;28;104507;-82
2021/03/12 00:40:19;;;;;;;2.80;1.03;;;;;;;7.56;78.05;98034.44;4896188;28;104118;-83
2021/03/12 00:42:47;;;;;;;3.03;0.90;;;;;;;7.57;77.99;98036.13;4865907;28;102934;-82
2021/03/12 00:45:17;;;;;;;4.77;1.07;;;;;;;7.57;77.73;98046.66;4880704;28;103272;-83
2021/03/12 00:47:47;;;;;;;3.23;1.17;;;;;;;7.59;76.77;98047.38;4898764;28;104866;-83
2021/03/12 00:50:21;;;;;;;4.17;0.90;;;;;;;7.63;76.58;98040.13;4868815;28;104798;-82
2021/03/12 00:52:49;;;;;;;5.57;0.90;;;;;;;7.63;75.87;98055.03;4873046;28;103287;-84
2021/03/12 00:55:16;;;;;;;3.67;1.17;;;;;;;7.64;76.25;98056.69;4904564;28;102989;-83
2021/03/12 00:57:49;;;;;;;3.87;1.13;;;;;;;7.65;75.61;98042.63;4907987;28;104308;-82
2021/03/12 01:00:19;;;;;;;2.90;1.10;;;;;;;7.68;74.98;98074.81;4870571;28;114404;-84
2021/03/12 01:02:46;;;;;;;2.33;1.10;;;;;;;7.68;74.29;98066.06;4891369;28;103781;-83
2021/03/12 01:05:14;;;;;;;2.80;0.90;;;;;;;7.72;74.41;98078.06;4888256;28;103158;-83
2021/03/12 01:07:41;;;;;;;2.57;1.03;;;;;;;7.62;74.30;98079.66;4875594;28;113073;-82
2021/03/12 01:10:10;;;;;;;4.60;1.30;;;;;;;7.56;73.99;98087.00;4871427;28;106524;-83
2021/03/12 01:12:37;;;;;;;2.00;0.97;;;;;;;7.51;72.32;98075.97;4888231;28;103188;-83
2021/03/12 01:15:09;;;;;;;1.77;0.77;;;;;;;7.49;72.09;98077.84;4868674;28;103280;-82
2021/03/12 01:17:37;;;;;;;4.93;1.07;;;;;;;7.44;71.18;98077.34;4877152;28;103973;-83
2021/03/12 01:20:08;;;;;;;2.80;0.90;;;;;;;7.48;71.42;98078.81;4879201;28;103733;-83
2021/03/12 01:22:36;;;;;;;4.13;1.23;;;;;;;7.41;72.06;98088.06;4881120;28;103103;-81
2021/03/12 01:25:07;;;;;;;3.37;0.80;;;;;;;7.42;70.93;98095.00;4855592;28;103341;-83
2021/03/12 01:27:39;;;;;;;2.90;1.10;;;;;;;7.33;71.44;98093.00;4876611;28;104298;-83
2021/03/12 01:30:13;;;;;;;7.20;1.10;;;;;;;7.32;70.33;98104.50;4871489;28;105248;-82
2021/03/12 01:32:47;;;;;;;6.47;1.27;;;;;;;7.34;70.36;98101.75;4866197;28;103913;-83
2021/03/12 01:35:18;;;;;;;3.17;1.07;;;;;;;7.35;69.66;98104.28;4907809;28;104349;-84
2021/03/12 01:37:46;;;;;;;4.57;1.00;;;;;;;7.31;70.69;98102.78;4898279;28;105021;-83
2021/03/12 01:40:16;;;;;;;4.00;0.90;;;;;;;7.27;69.78;98114.44;4878460;28;107735;-82
2021/03/12 01:42:58;;;;;;;4.40;1.00;;;;;;;7.27;70.36;98113.63;4878946;28;103247;-78
2021/03/12 01:45:31;;;;;;;3.00;1.00;;;;;;;7.28;69.52;98124.03;4880078;28;103433;-80
2021/03/12 01:48:00;;;;;;;2.77;1.00;;;;;;;7.34;69.48;98128.03;4879732;28;104381;-82
2021/03/12 01:50:29;;;;;;;5.70;0.90;;;;;;;7.27;70.25;98127.59;4879077;28;105813;-82
2021/03/12 01:52:56;;;;;;;5.33;1.00;;;;;;;7.19;70.54;98142.19;4880110;28;104965;-81
2021/03/12 01:55:29;;;;;;;2.83;1.27;;;;;;;7.18;70.75;98149.25;4881522;28;103071;-82
2021/03/12 01:57:57;;;;;;;4.70;1.10;;;;;;;7.19;71.33;98148.28;4900385;28;104513;-81
2021/03/12 02:00:34;;;;;;;3.53;0.90;;;;;;;7.24;71.68;98158.50;4856750;28;107333;-80
2021/03/12 02:03:13;;;;;;;4.80;1.20;;;;;;;7.18;72.89;98157.13;4880532;28;104963;-82
2021/03/12 02:05:48;;;;;;;2.07;0.80;;;;;;;7.12;73.94;98151.44;4881752;28;103252;-82
2021/03/12 02:08:16;;;;;;;3.43;1.10;;;;;;;7.09;74.59;98147.22;4871243;28;104963;-81
2021/03/12 02:10:52;;;;;;;4.00;1.10;;;;;;;7.01;74.75;98149.53;4882157;28;104563;-80
2021/03/12 02:13:32;;;;;;;3.77;1.30;;;;;;;7.05;74.82;98145.72;4883631;28;103287;-81
2021/03/12 02:16:08;;;;;;;2.57;1.00;;;;;;;7.01;74.55;98136.41;4881981;28;103002;-82
2021/03/12 02:18:50;;;;;;;3.87;1.20;;;;;;;7.02;73.79;98145.94;4876310;28;109375;-82
2021/03/12 02:21:25;;;;;;;4.90;1.10;;;;;;;6.97;73.93;98138.38;4882330;28;104600;-81
2021/03/12 02:24:06;;;;;;;2.47;1.37;;;;;;;7.08;73.30;98131.56;4908466;28;103199;-82
2021/03/12 02:26:51;;;;;;;2.47;0.90;;;;;;;7.04;73.42;98135.34;4884165;28;103546;-80
2021/03/12 02:29:23;;;;;;;3.43;1.10;;;;;;;6.98;75.60;98147.09;4891583;28;104281;-83
2021/03/12 02:31:54;;;;;;;5.47;1.13;;;;;;;6.90;77.73;98170.41;4883670;28;104252;-82
2021/03/12 02:34:26;;;;;;;4.37;1.20;;;;;;;6.64;80.41;98150.25;4857946;28;105806;-82
2021/03/12 02:37:05;;;;;;;2.13;1.00;;;;;;;6.59;81.93;98144.47;4883155;28;103106;-81
2021/03/12 02:39:42;;;;;;;2.90;1.00;;;;;;;6.52;82.42;98148.41;4882331;28;104001;-82
2021/03/12 02:42:11;;;;;;;4.37;1.33;;;;;;;6.38;82.93;98129.16;4882076;28;103733;-81
2021/03/12 02:44:43;;;;;;;2.63;0.90;;;;;;;6.43;82.97;98133.28;4897851;28;102779;-81
2021/03/12 02:47:16;;;;;;;2.63;1.30;;;;;;;6.43;83.49;98128.03;4884894;28;103267;-81
2021/03/12 02:49:45;;;;;;;1.80;0.90;;;;;;;6.34;83.48;98119.78;4881561;28;103862;-82
2021/03/12 02:52:13;;;;;;;3.53;1.20;;;;;;;6.41;83.46;98130.75;4858236;28;107624;-81
2021/03/12 02:54:43;;;;;;;4.57;1.23;;;;;;;6.20;82.54;98126.88;4900114;28;102962;-81
2021/03/12 02:57:12;;;;;;;4.93;1.30;;;;;;;6.29;82.62;98127.13;4885644;28;103429;-82
2021/03/12 02:59:40;;;;;;;4.00;1.30;;;;;;;6.29;82.13;98121.88;4897483;28;104322;-82
2021/03/12 03:02:18;;;;;;;3.97;1.33;;;;;;;6.26;80.16;98131.75;4877250;28;105786;-81
2021/03/12 03:05:07;;;;;;;4.63;1.37;;;;;;;6.19;79.22;98139.16;4887112;28;104346;-81
2021/03/12 03:07:40;;;;;;;3.73;0.80;;;;;;;6.34;79.55;98135.53;4871081;28;103238;-81
2021/03/12 03:10:10;;;;;;;3.07;1.00;;;;;;;6.31;78.22;98138.38;4888522;28;104522;-82
2021/03/12 03:12:41;;;;;;;2.90;0.90;;;;;;;6.29;77.54;98148.09;4899687;28;105120;-81
2021/03/12 03:15:11;;;;;;;3.13;0.93;;;;;;;6.28;77.33;98156.94;4877547;28;103409;-81
2021/03/12 03:17:39;;;;;;;2.73;0.83;;;;;;;6.25;76.90;98157.13;4892280;28;103937;-82
2021/03/12 03:20:12;;;;;;;5.13;1.10;;;;;;;6.25;75.45;98156.28;4881982;28;104393;-81
2021/03/12 03:22:44;;;;;;;3.00;1.00;;;;;;;6.33;76.00;98162.72;4881281;28;106830;-82
2021/03/12 03:25:13;;;;;;;2.60;0.80;;;;;;;6.39;76.19;98174.63;4875277;28;103621;-81
2021/03/12 03:27:42;;;;;;;4.57;1.00;;;;;;;6.28;74.92;98179.69;4906656;28;103324;-82
2021/03/12 03:30:14;;;;;;;2.00;0.90;;;;;;;6.40;75.05;98182.38;4909478;28;106176;-81
2021/03/12 03:32:45;;;;;;;2.27;0.73;;;;;;;6.36;74.05;98188.78;4874801;28;108496;-81
2021/03/12 03:35:13;;;;;;;4.20;0.97;;;;;;;6.40;74.42;98187.63;4868517;28;103478;-80
2021/03/12 03:37:41;;;;;;;2.90;0.80;;;;;;;6.43;74.37;98197.06;4899484;28;103219;-81
2021/03/12 03:40:11;;;;;;;3.40;1.00;;;;;;;6.42;73.25;98200.66;4890413;28;104499;-82
2021/03/12 03:42:46;;;;;;;2.93;1.10;;;;;;;6.48;74.19;98205.53;4872368;28;106583;-81
2021/03/12 03:45:16;;;;;;;2.37;0.90;;;;;;;6.46;73.81;98222.31;4865373;28;103313;-82
2021/03/12 03:47:51;;;;;;;3.37;0.80;;;;;;;6.51;73.13;98217.59;4896532;28;103015;-82
2021/03/12 03:50:20;;;;;;;1.60;0.80;;;;;;;6.49;73.05;98222.94;4879636;28;103482;-81
2021/03/12 03:52:47;;;;;;;3.07;0.80;;;;;;;6.52;73.05;98227.16;4881935;28;104599;-80
2021/03/12 03:55:21;;;;;;;4.37;1.27;;;;;;;6.49;72.05;98222.09;4863263;28;103366;-81
2021/03/12 03:57:50;;;;;;;2.80;0.90;;;;;;;6.46;71.35;98236.25;4879502;28;103255;-82
2021/03/12 04:00:20;;;;;;;1.43;0.90;;;;;;;6.50;70.98;98237.75;4869962;28;104421;-82
2021/03/12 04:02:58;;;;;;;2.10;1.10;;;;;;;6.52;71.35;98243.75;4876746;28;104363;-80
2021/03/12 04:05:27;;;;;;;1.47;0.90;;;;;;;6.47;70.10;98258.09;4880632;28;103383;-80
2021/03/12 04:08:00;;;;;;;2.20;0.70;;;;;;;6.50;69.97;98271.03;4881692;28;103146;-81
2021/03/12 04:10:29;;;;;;;3.17;1.10;;;;;;;6.56;69.44;98260.13;4862959;28;106222;-81
2021/03/12 04:12:59;;;;;;;2.93;1.13;;;;;;;6.51;69.22;98268.31;4898085;28;103602;-82
2021/03/12 04:15:26;;;;;;;1.73;0.70;;;;;;;6.60;70.04;98280.00;4888599;28;103074;-82
2021/03/12 04:17:58;;;;;;;2.03;1.07;;;;;;;6.57;70.44;98280.22;4880909;28;103094;-83
2021/03/12 04:20:27;;;;;;;4.53;0.90;;;;;;;6.53;69.09;98281.34;4872558;28;104779;-81
2021/03/12 04:22:57;;;;;;;2.53;1.00;;;;;;;6.55;69.58;98277.66;4891061;28;106617;-80
2021/03/12 04:25:29;;;;;;;2.63;1.43;;;;;;;6.61;69.13;98289.56;4864765;28;103137;-80
2021/03/12 04:27:56;;;;;;;4.70;1.20;;;;;;;6.50;68.61;98298.13;4881263;28;104610;-82
2021/03/12 04:30:25;;;;;;;3.30;1.10;;;;;;;6.54;68.09;98309.28;4896757;28;103961;-81
2021/03/12 04:32:53;;;;;;;2.80;0.97;;;;;;;6.59;69.54;98310.66;4875462;28;105284;-82
2021/03/12 04:35:21;;;;;;;1.37;1.07;;;;;;;6.56;68.07;98302.13;4852154;28;103298;-82
2021/03/12 04:37:48;;;;;;;5.17;1.03;;;;;;;6.58;68.45;98306.34;4857568;28;103167;-82
2021/03/12 04:40:19;;;;;;;2.60;0.97;;;;;;;6.56;68.72;98307.38;4863657;28;106771;-82
2021/03/12 04:42:49;;;;;;;3.30;1.10;;;;;;;6.56;68.25;98313.47;4897877;28;103846;-82
2021/03/12 04:45:20;;;;;;;3.10;0.70;;;;;;;6.52;67.35;98311.13;4878938;28;104473;-82
2021/03/12 04:47:55;;;;;;;2.83;1.07;;;;;;;6.51;66.89;98309.47;4863181;28;103400;-81
2021/03/12 04:50:26;;;;;;;2.63;1.23;;;;;;;6.60;67.62;98308.88;4862447;28;103836;-82
2021/03/12 04:52:55;;;;;;;4.97;1.63;;;;;;;6.50;67.22;98315.63;4855039;28;104262;-80
2021/03/12 04:55:23;;;;;;;4.33;1.27;;;;;;;6.52;67.03;98305.88;4914992;28;102942;-80
2021/03/12 04:57:53;;;;;;;4.13;1.23;;;;;;;6.53;66.88;98312.81;4890388;28;103128;-82
2021/03/12 05:00:22;;;;;;;2.80;1.20;;;;;;;6.55;67.30;98308.31;4876961;28;106415;-82
2021/03/12 05:03:11;;;;;;;3.50;1.00;;;;;;;6.45;67.03;98318.56;4873516;28;104013;-82
2021/03/12 05:05:42;;;;;;;5.77;1.43;;;;;;;6.51;67.54;98320.81;4864586;28;103469;-81
2021/03/12 05:08:12;;;;;;;3.23;1.43;;;;;;;6.48;67.24;98309.66;4865898;28;103264;-82
2021/03/12 05:10:59;;;;;;;3.90;1.30;;;;;;;6.48;66.34;98320.16;4868288;28;106285;-82
2021/03/12 05:13:31;;;;;;;4.57;1.30;;;;;;;6.33;67.19;98317.53;4867050;28;105918;-81
2021/03/12 05:15:58;;;;;;;3.50;1.30;;;;;;;6.33;67.59;98317.53;4860938;28;103131;-84
2021/03/12 05:18:26;;;;;;;3.17;1.00;;;;;;;6.33;67.61;98328.00;4879197;28;103298;-83
2021/03/12 05:20:56;;;;;;;5.27;1.43;;;;;;;6.27;67.33;98325.75;4861279;28;104243;-79
2021/03/12 05:23:24;;;;;;;8.17;1.57;;;;;;;6.36;67.52;98326.97;4887553;28;104924;-79
2021/03/12 05:25:52;;;;;;;5.27;1.07;;;;;;;6.33;67.64;98335.03;4889140;28;103063;-80
2021/03/12 05:28:20;;;;;;;3.73;1.13;;;;;;;6.33;68.13;98335.88;4896259;28;104907;-79
2021/03/12 05:30:47;;;;;;;4.37;1.30;;;;;;;6.34;68.07;98329.69;4872034;28;104004;-78
2021/03/12 05:33:14;;;;;;;3.23;1.13;;;;;;;6.31;69.11;98332.53;4891787;28;110388;-77
2021/03/12 05:35:43;;;;;;;4.47;0.90;;;;;;;6.25;69.60;98330.25;4875270;28;103097;-78
2021/03/12 05:38:12;;;;;;;2.87;1.10;;;;;;;6.16;70.16;98322.94;4882586;28;104563;-79
2021/03/12 05:40:40;;;;;;;4.83;1.53;;;;;;;6.14;70.73;98332.69;4884525;28;103930;-79
2021/03/12 05:43:09;;;;;;;5.17;1.20;;;;;;;6.08;71.14;98327.81;4901891;28;103747;-77
2021/03/12 05:45:53;;;;;;;3.50;1.40;;;;;;;6.10;71.51;98327.72;4863046;28;103309;-82
2021/03/12 05:48:21;;;;;;;2.70;1.37;;;;;;;6.11;71.58;98322.38;4888163;28;103279;-80
2021/03/12 05:50:51;;;;;;;3.93;1.47;;;;;;;6.10;71.33;98327.72;4852706;28;106811;-81
2021/03/12 05:53:20;;;;;;;2.43;1.07;;;;;;;6.14;71.67;98330.06;4871523;28;103709;-81
2021/03/12 05:55:47;;;;;;;4.27;1.07;;;;;;;6.22;71.16;98333.06;4895253;28;103575;-78
2021/03/12 05:58:17;;;;;;;5.60;1.53;;;;;;;6.16;71.92;98329.97;4895799;28;103348;-75
2021/03/12 06:00:45;;;;;;;5.70;1.30;;;;;;;6.20;71.64;98327.06;4867228;28;106434;-77
2021/03/12 06:03:14;;;;;;;3.77;0.93;;;;;;;6.15;71.95;98334.38;4867789;28;104560;-77
2021/03/12 06:05:48;;;;;;;4.87;1.10;;;;;;;6.17;71.82;98332.50;4877694;28;103338;-77
2021/03/12 06:08:20;;;;;;;6.67;1.30;;;;;;;6.25;72.26;98337.28;4880079;28;104729;-79
2021/03/12 06:10:50;;;;;;;3.93;1.03;;;;;;;6.23;72.20;98329.50;4881292;28;104521;-79
2021/03/12 06:13:22;;;;;;;3.83;1.43;;;;;;;6.28;72.27;98330.09;4897798;28;106041;-77
2021/03/12 06:16:21;;;;;;;3.67;0.87;;;;;;;6.16;71.58;98324.72;4881545;28;103429;-77
2021/03/12 06:19:09;;;;;;;4.77;1.27;;;;;;;6.28;71.07;98327.47;4880822;28;104635;-77
2021/03/12 06:21:37;;;;;;;3.70;1.43;;;;;;;6.34;71.34;98327.06;4868679;28;103830;-76
2021/03/12 06:24:26;;;;;;;5.23;1.20;;;;;;;6.47;70.93;98324.53;4883124;28;106291;-77
2021/03/12 06:27:24;;;;;;;4.40;1.23;;;;;;;6.59;70.39;98323.78;4864730;28;103652;-79
2021/03/12 06:29:58;;;;;;;5.03;1.20;;;;;;;6.67;70.36;98315.44;4880060;28;103985;-80
2021/03/12 06:32:52;;;;;;;3.40;1.10;;;;;;;6.63;70.17;98319.19;4891339;28;104313;-80
2021/03/12 06:35:36;;;;;;;4.13;1.23;;;;;;;6.67;70.39;98320.69;4870756;28;106579;-81
2021/03/12 06:38:14;;;;;;;1.67;0.80;;;;;;;6.76;70.70;98325.38;4866661;28;104329;-84
2021/03/12 06:40:59;;;;;;;4.93;1.30;;;;;;;6.71;70.16;98336.13;4861080;28;103145;-83
2021/03/12 06:43:48;;;;;;;5.10;1.50;;;;;;;6.68;69.75;98343.38;4872493;28;103866;-84
2021/03/12 06:46:44;;;;;;;2.50;1.03;;;;;;;6.78;69.74;98355.00;4893756;28;103989;-83
2021/03/12 06:49:15;;;;;;;4.27;1.07;;;;;;;6.77;69.06;98358.53;4879309;28;103131;-87
2021/03/12 06:51:59;;;;;;;4.30;1.40;;;;;;;6.92;69.54;98362.84;4873367;28;103286;-86
2021/03/12 06:54:28;;;;;;;3.10;1.07;;;;;;;6.91;69.26;98356.75;4884744;28;103937;-86
2021/03/12 06:57:20;;;;;;;5.47;1.00;;;;;;;6.94;69.07;98371.47;4883097;28;104790;-86
2021/03/12 07:00:00;;;;;;;5.83;1.10;;;;;;;6.89;69.26;98366.50;4873871;28;103663;-85
2021/03/12 07:02:36;;;;;;;3.33;1.03;;;;;;;6.83;69.28;98358.16;4858703;28;103525;-88
2021/03/12 07:05:10;;;;;;;5.37;1.10;;;;;;;6.97;69.29;98366.03;4876922;28;104449;-87
2021/03/12 07:07:46;;;;;;;5.90;1.10;;;;;;;7.18;68.70;98363.81;4867285;28;109146;-80
2021/03/12 07:10:39;;;;;;;2.30;0.80;;;;;;;7.42;68.42;98357.84;4886569;28;103351;-87
2021/03/12 07:13:30;;;;;;;3.67;1.10;;;;;;;7.59;68.09;98370.72;4862577;28;103396;-88
2021/03/12 07:16:07;;;;;;;3.90;1.07;;;;;;;7.68;67.61;98371.91;4881391;28;107430;-90
2021/03/12 07:18:58;;;;;;;2.30;0.80;;;;;;;8.01;67.03;98384.59;4889785;28;105975;-87
2021/03/12 07:21:28;;;;;;;4.53;1.40;;;;;;;8.28;65.79;98393.31;4876279;28;103160;-91
2021/03/12 07:24:05;;;;;;;3.17;1.00;;;;;;;7.93;66.80;98400.06;4881690;28;104660;-84
2021/03/12 07:26:39;;;;;;;2.30;0.93;;;;;;;7.89;67.97;98399.41;4860142;28;106643;-86
2021/03/12 07:29:13;;;;;;;2.87;1.00;;;;;;;7.77;67.35;98399.41;4887110;28;103982;-89
2021/03/12 07:31:57;;;;;;;4.70;1.00;;;;;;;7.57;67.63;98393.66;4874852;28;103391;-88
2021/03/12 07:34:32;;;;;;;3.47;1.10;;;;;;;7.62;67.91;98405.63;4879150;28;103193;-80
2021/03/12 07:37:09;;;;;;;3.97;0.77;;;;;;;7.54;67.77;98408.78;4876299;28;107522;-84
2021/03/12 07:39:45;;;;;;;6.20;1.20;;;;;;;7.62;67.34;98401.22;4877597;28;103196;-86
2021/03/12 07:42:20;;;;;;;3.43;1.20;;;;;;;7.56;67.36;98406.88;4867638;28;103655;-85
2021/03/12 07:45:18;;;;;;;6.07;1.40;;;;;;;7.59;67.62;98414.56;4891660;28;104682;-81
2021/03/12 07:48:12;;;;;;;4.77;1.67;;;;;;;7.07;73.42;98434.59;4889343;28;104731;-80
2021/03/12 07:51:10;;;;;;;5.93;1.70;;;;;;;6.90;76.12;98435.63;4871906;28;108931;-78
2021/03/12 07:53:53;;;;;;;5.13;1.20;;;;;;;6.98;77.11;98443.88;4867077;28;103787;-83
2021/03/12 07:57:01;;;;;;;6.87;1.57;;;;;;;7.10;76.35;98440.50;4876054;28;103568;-83
2021/03/12 08:00:01;;;;;;;3.60;2.00;;;;;;;7.35;75.95;98450.31;4781075;29;107438;-88
2021/03/12 08:02:57;;;;;;;4.00;1.20;;;;;;;7.27;76.51;98448.16;4803722;29;105291;-88
2021/03/12 08:05:45;;;;;;;0.83;0.77;;;;;;;7.03;77.33;98464.59;4911267;28;103125;-87
2021/03/12 08:08:34;;;;;;;3.40;1.03;;;;;;;7.07;78.15;98452.97;4882573;28;104726;-85
2021/03/12 08:11:54;;;;;;;5.17;1.30;;;;;;;7.31;80.41;98448.81;4860387;28;106767;-87
2021/03/12 08:15:15;;;;;;;2.53;1.20;;;;;;;8.03;80.11;98448.47;4867162;28;106238;-85
2021/03/12 08:18:25;;;;;;;3.73;1.10;;;;;;;8.49;78.32;98441.88;4878732;28;104010;-85
2021/03/12 08:21:35;;;;;;;2.10;0.83;;;;;;;9.42;75.51;98438.84;4871488;28;103929;-85
2021/03/12 08:24:49;;;;;;;2.80;1.00;;;;;;;9.85;71.92;98445.31;4885273;28;104475;-85
2021/03/12 08:27:40;;;;;;;2.00;0.93;;;;;;;9.64;72.90;98444.25;4856266;28;104914;-87
2021/03/12 08:30:46;;;;;;;5.57;1.10;;;;;;;9.42;70.85;98444.13;4875536;28;104208;-85
2021/03/12 08:33:40;;;;;;;2.07;0.90;;;;;;;9.72;69.47;98441.88;4874717;28;105223;-85
2021/03/12 08:36:25;;;;;;;4.07;1.20;;;;;;;9.43;71.14;98435.22;4889074;28;104625;-86
2021/03/12 08:39:29;;;;;;;2.77;1.20;;;;;;;9.11;70.08;98444.59;4868678;28;105227;-85
2021/03/12 08:43:04;;;;;;;3.30;0.90;;;;;;;8.87;70.17;98441.03;4882639;28;103001;-83
2021/03/12 08:45:52;;;;;;;4.13;1.10;;;;;;;8.99;70.18;98437.53;4903538;28;103162;-83
2021/03/12 08:48:30;;;;;;;4.93;1.07;;;;;;;8.74;71.33;98431.34;4851918;28;108990;-84
2021/03/12 08:51:04;;;;;;;1.97;1.20;;;;;;;8.90;69.35;98435.56;4863993;28;104603;-84
2021/03/12 08:53:37;;;;;;;3.33;1.20;;;;;;;8.66;68.76;98438.09;4888222;28;103482;-84
2021/03/12 08:56:09;;;;;;;1.43;0.93;;;;;;;8.76;68.72;98438.31;4880062;28;103209;-83
2021/03/12 08:58:47;;;;;;;3.77;1.53;;;;;;;8.67;67.75;98432.69;4868240;28;107493;-83
2021/03/12 09:01:31;;;;;;;3.97;0.90;;;;;;;8.46;69.33;98431.56;4861474;28;105409;-83
2021/03/12 09:04:06;;;;;;;3.17;1.00;;;;;;;8.54;69.17;98423.97;4855739;28;103633;-84
2021/03/12 09:06:36;;;;;;;2.83;1.00;;;;;;;8.52;68.65;98425.03;4882630;28;103463;-84
2021/03/12 09:09:18;;;;;;;2.40;0.70;;;;;;;8.77;68.65;98418.91;4871591;28;104746;-83
2021/03/12 09:12:15;;;;;;;2.27;0.90;;;;;;;8.86;67.80;98424.41;4884977;28;104554;-84
2021/03/12 09:15:12;;;;;;;2.17;1.00;;;;;;;8.92;67.32;98420.50;4881144;28;103383;-83
2021/03/12 09:17:40;;;;;;;3.23;1.07;;;;;;;9.18;67.08;98419.47;4886914;28;103101;-83
2021/03/12 09:20:15;;;;;;;2.93;1.03;;;;;;;9.33;64.56;98419.25;4877250;28;105682;-83
2021/03/12 09:22:52;;;;;;;2.00;0.80;;;;;;;9.71;64.80;98424.38;4855502;28;105595;-82
2021/03/12 09:25:29;;;;;;;2.63;0.97;;;;;;;9.86;64.16;98422.41;4879370;28;103332;-83
2021/03/12 09:28:04;;;;;;;2.83;1.13;;;;;;;9.45;63.46;98417.53;4882540;28;104102;-82
2021/03/12 09:30:37;;;;;;;2.40;1.30;;;;;;;9.30;65.23;98422.09;4881925;28;106645;-85
2021/03/12 09:33:36;;;;;;;2.57;1.00;;;;;;;9.09;66.50;98407.81;4869242;28;104372;-84
2021/03/12 09:36:32;;;;;;;1.97;1.20;;;;;;;8.87;67.79;98419.97;4894243;28;103178;-84
2021/03/12 09:39:11;;;;;;;2.63;1.00;;;;;;;8.82;67.48;98422.06;4872228;28;104532;-84
2021/03/12 09:41:42;;;;;;;3.77;1.60;;;;;;;8.46;68.70;98420.16;4865354;28;107857;-83
2021/03/12 09:44:11;;;;;;;4.63;1.40;;;;;;;8.28;68.89;98424.88;4881078;28;105702;-83
2021/03/12 09:46:51;;;;;;;4.13;1.10;;;;;;;8.77;69.28;98418.91;4879837;28;103420;-81
2021/03/12 09:49:37;;;;;;;2.57;0.90;;;;;;;9.06;67.43;98410.69;4865374;28;103250;-82
2021/03/12 09:52:08;;;;;;;4.37;1.20;;;;;;;9.25;66.47;98415.47;4867222;28;107276;-79
2021/03/12 09:54:40;;;;;;;2.57;1.03;;;;;;;9.31;65.22;98407.97;4876398;28;104274;-83
2021/03/12 09:57:11;;;;;;;3.13;0.80;;;;;;;9.60;66.22;98408.47;4877749;28;103865;-82
2021/03/12 09:59:43;;;;;;;3.43;1.07;;;;;;;9.34;64.40;98412.19;4855624;28;104987;-82
2021/03/12 10:02:57;;;;;;;3.33;1.03;;;;;;;8.96;64.20;98408.78;4901096;28;104136;-81
2021/03/12 10:05:46;;;;;;;3.67;0.90;;;;;;;9.14;65.10;98410.13;4892307;28;103612;-81
2021/03/12 10:08:29;;;;;;;4.00;0.90;;;;;;;9.38;65.03;98415.41;4891074;28;103427;-81
2021/03/12 10:11:17;;;;;;;5.33;1.30;;;;;;;9.29;64.70;98411.69;4904192;28;105452;-81
2021/03/12 10:13:57;;;;;;;3.97;1.20;;;;;;;8.94;64.75;98408.03;4894940;28;105891;-81
2021/03/12 10:16:42;;;;;;;4.83;1.13;;;;;;;8.94;65.04;98400.13;4888917;28;104395;-81
2021/03/12 10:19:41;;;;;;;3.67;1.33;;;;;;;9.70;64.45;98396.31;4870207;28;103576;-81
2021/03/12 10:22:14;;;;;;;3.27;1.20;;;;;;;9.59;63.37;98398.91;4897368;28;103610;-80
2021/03/12 10:24:42;;;;;;;3.67;1.10;;;;;;;9.80;62.72;98392.03;4890529;28;104459;-79
2021/03/12 10:27:10;;;;;;;2.70;1.03;;;;;;;9.94;61.78;98398.13;4897341;28;103952;-81
2021/03/12 10:29:38;;;;;;;5.17;1.43;;;;;;;10.13;62.00;98393.19;4890260;28;103392;-81
2021/03/12 10:32:10;;;;;;;4.03;1.10;;;;;;;10.39;60.15;98392.03;4897250;28;105696;-81
2021/03/12 10:34:46;;;;;;;3.80;1.17;;;;;;;10.29;60.56;98391.06;4880539;28;104768;-81
2021/03/12 10:37:17;;;;;;;2.97;0.87;;;;;;;9.78;60.01;98383.41;4879074;28;104702;-81
2021/03/12 10:39:47;;;;;;;2.63;1.03;;;;;;;10.09;59.55;98391.69;4879919;28;103518;-80
2021/03/12 10:42:24;;;;;;;4.57;0.87;;;;;;;10.08;59.37;98389.97;4898446;28;103320;-80
2021/03/12 10:44:56;;;;;;;1.40;0.70;;;;;;;9.85;61.06;98391.72;4846873;28;111713;-88
2021/03/12 10:47:23;;;;;;;2.97;0.80;;;;;;;9.78;62.97;98391.31;4892254;28;104232;-80
2021/03/12 10:49:52;;;;;;;4.10;1.00;;;;;;;9.89;63.51;98396.66;4895289;28;103289;-82
2021/03/12 10:52:29;;;;;;;2.27;1.10;;;;;;;10.10;62.86;98388.94;4878866;28;103220;-81
2021/03/12 10:55:07;;;;;;;0.77;0.60;;;;;;;9.93;58.85;98375.31;4891680;28;104618;-81
2021/03/12 10:57:41;;;;;;;0.63;0.57;;;;;;;10.82;59.44;98376.34;4879379;28;104553;-79
2021/03/12 11:00:17;;;;;;;3.10;0.80;;;;;;;11.11;56.25;98371.41;4888235;28;103285;-87
2021/03/12 11:02:45;;;;;;;3.00;1.17;;;;;;;10.91;56.12;98368.56;4892973;28;103019;-82
2021/03/12 11:05:16;;;;;;;1.30;0.67;;;;;;;10.06;55.60;98365.50;4893737;28;105682;-83
2021/03/12 11:07:45;;;;;;;2.43;0.77;;;;;;;11.10;56.06;98369.72;4886120;28;104912;-84
2021/03/12 11:10:14;;;;;;;2.40;0.73;;;;;;;11.44;54.60;98361.63;4884234;28;103392;-82
2021/03/12 11:12:45;;;;;;;2.03;0.70;;;;;;;11.23;53.31;98349.28;4882150;28;103192;-86
2021/03/12 11:15:14;;;;;;;1.33;0.90;;;;;;;11.69;53.21;98341.09;4880386;28;104314;-87
2021/03/12 11:17:45;;;;;;;7.33;2.70;;;;;;;11.55;54.13;98340.41;4880190;28;104702;-86
2021/03/12 11:20:16;;;;;;;1.97;0.90;;;;;;;11.66;54.44;98336.88;4848050;28;103178;-79
2021/03/12 11:22:43;;;;;;;2.07;0.67;;;;;;;11.82;53.12;98334.69;4869398;28;103347;-80
2021/03/12 11:25:11;;;;;;;2.50;0.70;;;;;;;12.31;51.44;98325.28;4883552;28;104143;-78
2021/03/12 11:27:38;;;;;;;1.90;1.00;;;;;;;12.06;51.24;98313.28;4892886;28;106292;-80
2021/03/12 11:30:10;;;;;;;1.20;0.80;;;;;;;12.13;51.70;98328.50;4893702;28;103101;-81
2021/03/12 11:32:39;;;;;;;1.23;0.70;;;;;;;11.96;51.73;98317.66;4886776;28;104950;-83
2021/03/12 11:35:08;;;;;;;1.20;0.53;;;;;;;11.69;51.78;98331.38;4856855;28;105165;-83
2021/03/12 11:37:35;;;;;;;2.13;0.73;;;;;;;11.13;53.11;98338.59;4878392;28;103764;-83
2021/03/12 11:40:04;;;;;;;3.33;1.00;;;;;;;11.58;55.58;98336.69;4888391;28;103261;-84
2021/03/12 11:42:32;;;;;;;3.17;0.97;;;;;;;12.00;54.14;98334.97;4889698;28;103564;-85
2021/03/12 11:45:00;;;;;;;2.83;0.70;;;;;;;12.30;53.68;98342.97;4899494;28;104605;-82
2021/03/12 11:47:28;;;;;;;2.40;1.00;;;;;;;11.73;53.47;98330.16;4897316;28;103218;-81
2021/03/12 11:49:55;;;;;;;2.70;0.70;;;;;;;11.98;51.88;98313.09;4904092;28;102865;-81
2021/03/12 11:52:25;;;;;;;1.53;0.80;;;;;;;12.28;49.91;98322.88;4900444;28;103340;-83
2021/03/12 11:54:54;;;;;;;1.13;0.70;;;;;;;12.31;48.88;98304.94;4912809;28;104390;-79
2021/03/12 11:57:22;;;;;;;2.20;0.70;;;;;;;12.85;47.32;98301.97;4893762;28;103291;-78
2021/03/12 11:59:50;;;;;;;1.30;0.80;;;;;;;12.78;47.48;98300.81;4897284;28;103431;-81
2021/03/12 12:02:18;;;;;;;4.53;0.80;;;;;;;13.09;47.29;98298.97;4904509;28;103450;-81
2021/03/12 12:04:46;;;;;;;2.57;0.90;;;;;;;13.43;47.07;98310.06;4901145;28;104370;-81
2021/03/12 12:07:15;;;;;;;3.50;1.23;;;;;;;13.50;46.68;98297.94;4903201;28;103982;-81
2021/03/12 12:09:42;;;;;;;2.40;1.17;;;;;;;13.32;46.77;98295.13;4895088;28;103159;-81